sensor_id;sensor_type;location;lat;lon;timestamp;P1;P2;P0
12246;PMS7003;6186;52.022;4.692;2023-03-01T00:01:32;16.33;14.33;8.00
12246;PMS7003;6186;52.022;4.692;2023-03-01T00:03:57;16.33;15.00;7.00
12246;PMS7003;6186;52.022;4.692;2023-03-01T00:06:24;15.00;12.50;7.00
12246;PMS7003;6186;52.022;4.692;2023-03-01T00:08:50;15.50;15.25;8.00
12246;PMS7003;6186;52.022;4.692;2023-03-01T00:11:17;18.00;14.00;7.00
12246;PMS7003;6186;52.022;4.692;2023-03-01T00:13:43;14.50;13.25;6.75
12246;PMS7003;6186;52.022;4.692;2023-03-01T00:16:11;15.00;13.25;8.00
12246;PMS7003;6186;52.022;4.692;2023-03-01T00:18:48;18.00;13.75;7.25
12246;PMS7003;6186;52.022;4.692;2023-03-01T00:21:14;12.00;12.00;7.00
12246;PMS7003;6186;52.022;4.692;2023-03-01T00:23:39;16.00;14.50;8.00
12246;PMS7003;6186;52.022;4.692;2023-03-01T00:26:06;15.25;14.00;8.25
12246;PMS7003;6186;52.022;4.692;2023-03-01T00:28:33;15.00;13.50;8.00
12246;PMS7003;6186;52.022;4.692;2023-03-01T00:31:03;16.67;13.67;8.00
12246;PMS7003;6186;52.022;4.692;2023-03-01T00:33:30;14.50;12.75;7.75
12246;PMS7003;6186;52.022;4.692;2023-03-01T00:35:57;16.33;14.67;9.00
12246;PMS7003;6186;52.022;4.692;2023-03-01T00:38:23;17.25;13.75;8.00
12246;PMS7003;6186;52.022;4.692;2023-03-01T00:40:48;13.00;12.33;7.00
12246;PMS7003;6186;52.022;4.692;2023-03-01T00:43:13;15.33;14.00;8.00
12246;PMS7003;6186;52.022;4.692;2023-03-01T00:45:39;15.67;14.00;8.00
12246;PMS7003;6186;52.022;4.692;2023-03-01T00:48:04;15.00;14.00;8.00
12246;PMS7003;6186;52.022;4.692;2023-03-01T00:50:30;18.75;15.75;8.75
12246;PMS7003;6186;52.022;4.692;2023-03-01T00:52:55;15.67;15.00;11.33
12246;PMS7003;6186;52.022;4.692;2023-03-01T00:55:21;20.00;16.67;11.00
12246;PMS7003;6186;52.022;4.692;2023-03-01T00:57:47;16.00;15.00;10.00
12246;PMS7003;6186;52.022;4.692;2023-03-01T01:00:12;16.00;15.67;8.33
12246;PMS7003;6186;52.022;4.692;2023-03-01T01:02:38;19.33;17.67;9.33
12246;PMS7003;6186;52.022;4.692;2023-03-01T01:05:03;20.00;16.00;8.67
12246;PMS7003;6186;52.022;4.692;2023-03-01T01:07:29;19.25;16.25;10.50
12246;PMS7003;6186;52.022;4.692;2023-03-01T01:09:55;15.67;15.67;10.00
12246;PMS7003;6186;52.022;4.692;2023-03-01T01:12:20;18.67;17.00;11.00
12246;PMS7003;6186;52.022;4.692;2023-03-01T01:14:45;18.00;16.33;11.00
12246;PMS7003;6186;52.022;4.692;2023-03-01T01:17:11;19.67;16.67;11.00
12246;PMS7003;6186;52.022;4.692;2023-03-01T01:19:37;19.33;18.00;11.00
12246;PMS7003;6186;52.022;4.692;2023-03-01T01:22:02;22.00;18.67;11.33
12246;PMS7003;6186;52.022;4.692;2023-03-01T01:24:28;20.25;18.25;10.00
12246;PMS7003;6186;52.022;4.692;2023-03-01T01:26:54;19.67;19.00;11.00
12246;PMS7003;6186;52.022;4.692;2023-03-01T01:29:19;17.33;17.00;9.33
12246;PMS7003;6186;52.022;4.692;2023-03-01T01:31:44;19.67;16.00;11.00
12246;PMS7003;6186;52.022;4.692;2023-03-01T01:34:17;19.67;17.33;11.00
12246;PMS7003;6186;52.022;4.692;2023-03-01T01:36:47;20.25;18.25;12.00
12246;PMS7003;6186;52.022;4.692;2023-03-01T01:39:18;20.75;18.25;11.00
12246;PMS7003;6186;52.022;4.692;2023-03-01T01:41:44;20.25;17.50;11.00
12246;PMS7003;6186;52.022;4.692;2023-03-01T01:44:10;17.00;16.00;8.00
12246;PMS7003;6186;52.022;4.692;2023-03-01T01:49:35;22.00;19.75;11.50
12246;PMS7003;6186;52.022;4.692;2023-03-01T01:52:14;22.50;19.00;11.00
12246;PMS7003;6186;52.022;4.692;2023-03-01T01:54:50;17.00;15.00;10.00
12246;PMS7003;6186;52.022;4.692;2023-03-01T01:57:37;18.75;17.00;11.00
12246;PMS7003;6186;52.022;4.692;2023-03-01T02:00:08;23.50;20.75;11.75
12246;PMS7003;6186;52.022;4.692;2023-03-01T02:02:36;24.25;20.50;12.50
12246;PMS7003;6186;52.022;4.692;2023-03-01T02:05:51;20.75;18.50;11.75
12246;PMS7003;6186;52.022;4.692;2023-03-01T02:08:08;20.50;18.50;11.00
12246;PMS7003;6186;52.022;4.692;2023-03-01T02:10:37;19.50;18.00;11.25
12246;PMS7003;6186;52.022;4.692;2023-03-01T02:13:03;21.25;19.50;12.00
12246;PMS7003;6186;52.022;4.692;2023-03-01T02:15:31;22.67;19.33;13.67
12246;PMS7003;6186;52.022;4.692;2023-03-01T02:17:58;22.75;20.50;12.50
12246;PMS7003;6186;52.022;4.692;2023-03-01T02:23:01;18.50;16.25;10.25
12246;PMS7003;6186;52.022;4.692;2023-03-01T02:30:26;20.75;19.00;11.75
12246;PMS7003;6186;52.022;4.692;2023-03-01T02:32:53;24.25;20.50;12.50
12246;PMS7003;6186;52.022;4.692;2023-03-01T02:35:27;18.75;18.00;11.00
12246;PMS7003;6186;52.022;4.692;2023-03-01T02:37:54;24.50;18.75;11.00
12246;PMS7003;6186;52.022;4.692;2023-03-01T02:40:22;26.50;22.75;13.75
12246;PMS7003;6186;52.022;4.692;2023-03-01T02:42:50;24.00;21.00;12.75
12246;PMS7003;6186;52.022;4.692;2023-03-01T02:45:19;21.50;18.50;11.50
12246;PMS7003;6186;52.022;4.692;2023-03-01T02:47:44;23.33;18.33;10.00
12246;PMS7003;6186;52.022;4.692;2023-03-01T02:50:18;20.00;18.00;11.00
12246;PMS7003;6186;52.022;4.692;2023-03-01T02:52:53;26.25;21.00;11.75
12246;PMS7003;6186;52.022;4.692;2023-03-01T02:55:26;22.25;20.00;13.25
12246;PMS7003;6186;52.022;4.692;2023-03-01T02:57:52;23.25;20.50;11.00
12246;PMS7003;6186;52.022;4.692;2023-03-01T03:00:20;21.25;20.50;11.50
12246;PMS7003;6186;52.022;4.692;2023-03-01T03:02:49;22.25;19.75;11.00
12246;PMS7003;6186;52.022;4.692;2023-03-01T03:07:46;22.25;15.50;8.00
12246;PMS7003;6186;52.022;4.692;2023-03-01T03:10:17;18.00;17.00;9.50
12246;PMS7003;6186;52.022;4.692;2023-03-01T03:12:51;21.25;19.25;10.25
12246;PMS7003;6186;52.022;4.692;2023-03-01T03:15:19;20.25;17.25;10.00
12246;PMS7003;6186;52.022;4.692;2023-03-01T03:17:45;18.50;17.25;11.50
12246;PMS7003;6186;52.022;4.692;2023-03-01T03:20:13;20.75;17.75;10.50
12246;PMS7003;6186;52.022;4.692;2023-03-01T03:22:43;20.75;19.75;11.00
12246;PMS7003;6186;52.022;4.692;2023-03-01T03:25:10;19.75;17.00;10.75
12246;PMS7003;6186;52.022;4.692;2023-03-01T03:27:36;19.33;17.00;10.00
12246;PMS7003;6186;52.022;4.692;2023-03-01T03:30:05;18.50;17.00;8.50
12246;PMS7003;6186;52.022;4.692;2023-03-01T03:32:37;20.00;17.75;10.00
12246;PMS7003;6186;52.022;4.692;2023-03-01T03:35:04;17.00;14.50;8.00
12246;PMS7003;6186;52.022;4.692;2023-03-01T03:37:35;21.00;19.00;11.00
12246;PMS7003;6186;52.022;4.692;2023-03-01T03:40:19;22.50;19.50;11.00
12246;PMS7003;6186;52.022;4.692;2023-03-01T03:42:45;20.67;18.67;11.00
12246;PMS7003;6186;52.022;4.692;2023-03-01T03:45:10;16.00;14.67;8.00
12246;PMS7003;6186;52.022;4.692;2023-03-01T03:47:35;21.33;16.33;10.00
12246;PMS7003;6186;52.022;4.692;2023-03-01T03:50:01;23.00;18.33;10.00
12246;PMS7003;6186;52.022;4.692;2023-03-01T03:52:26;21.00;19.33;11.00
12246;PMS7003;6186;52.022;4.692;2023-03-01T03:54:51;21.67;18.00;10.00
12246;PMS7003;6186;52.022;4.692;2023-03-01T03:57:17;20.33;17.67;10.00
12246;PMS7003;6186;52.022;4.692;2023-03-01T03:59:42;17.00;16.00;8.00
12246;PMS7003;6186;52.022;4.692;2023-03-01T04:02:07;17.67;16.00;8.00
12246;PMS7003;6186;52.022;4.692;2023-03-01T04:04:33;17.00;16.75;9.50
12246;PMS7003;6186;52.022;4.692;2023-03-01T04:06:59;20.67;15.33;9.33
12246;PMS7003;6186;52.022;4.692;2023-03-01T04:09:24;21.00;19.67;10.33
12246;PMS7003;6186;52.022;4.692;2023-03-01T04:11:50;17.67;15.00;8.00
12246;PMS7003;6186;52.022;4.692;2023-03-01T04:14:15;21.67;18.00;11.00
12246;PMS7003;6186;52.022;4.692;2023-03-01T04:16:40;13.33;13.33;7.33
12246;PMS7003;6186;52.022;4.692;2023-03-01T04:19:06;16.33;15.00;7.67
12246;PMS7003;6186;52.022;4.692;2023-03-01T04:21:31;16.33;16.33;8.00
12246;PMS7003;6186;52.022;4.692;2023-03-01T04:23:56;14.33;13.67;7.67
12246;PMS7003;6186;52.022;4.692;2023-03-01T04:26:22;18.33;17.33;10.00
12246;PMS7003;6186;52.022;4.692;2023-03-01T04:28:47;20.33;15.33;8.67
12246;PMS7003;6186;52.022;4.692;2023-03-01T04:31:15;16.50;15.00;8.50
12246;PMS7003;6186;52.022;4.692;2023-03-01T04:33:44;17.00;14.25;8.25
12246;PMS7003;6186;52.022;4.692;2023-03-01T04:36:11;15.25;13.75;7.00
12246;PMS7003;6186;52.022;4.692;2023-03-01T04:38:38;14.25;14.25;7.25
12246;PMS7003;6186;52.022;4.692;2023-03-01T04:41:05;16.25;15.00;9.50
12246;PMS7003;6186;52.022;4.692;2023-03-01T04:43:32;13.50;13.50;7.00
12246;PMS7003;6186;52.022;4.692;2023-03-01T04:46:18;13.50;13.00;7.25
12246;PMS7003;6186;52.022;4.692;2023-03-01T04:48:45;15.25;14.25;7.00
12246;PMS7003;6186;52.022;4.692;2023-03-01T04:51:12;15.50;13.00;8.00
12246;PMS7003;6186;52.022;4.692;2023-03-01T04:53:41;13.25;12.75;7.00
12246;PMS7003;6186;52.022;4.692;2023-03-01T04:56:07;15.00;14.50;8.25
12246;PMS7003;6186;52.022;4.692;2023-03-01T04:58:33;15.67;14.00;8.00
12246;PMS7003;6186;52.022;4.692;2023-03-01T05:00:58;13.00;11.67;8.00
12246;PMS7003;6186;52.022;4.692;2023-03-01T05:03:24;14.67;10.33;7.00
12246;PMS7003;6186;52.022;4.692;2023-03-01T05:05:50;15.67;12.33;7.00
12246;PMS7003;6186;52.022;4.692;2023-03-01T05:08:16;17.50;14.50;8.25
12246;PMS7003;6186;52.022;4.692;2023-03-01T05:10:46;14.50;13.00;7.00
12246;PMS7003;6186;52.022;4.692;2023-03-01T05:13:14;12.00;11.50;7.00
12246;PMS7003;6186;52.022;4.692;2023-03-01T05:15:53;16.00;13.50;7.00
12246;PMS7003;6186;52.022;4.692;2023-03-01T05:18:20;12.25;11.50;7.00
12246;PMS7003;6186;52.022;4.692;2023-03-01T05:20:45;15.67;13.67;8.33
12246;PMS7003;6186;52.022;4.692;2023-03-01T05:23:11;15.00;13.00;7.00
12246;PMS7003;6186;52.022;4.692;2023-03-01T05:25:36;14.33;14.33;7.00
12246;PMS7003;6186;52.022;4.692;2023-03-01T05:28:05;15.75;12.50;6.00
12246;PMS7003;6186;52.022;4.692;2023-03-01T05:30:35;15.75;14.00;7.00
12246;PMS7003;6186;52.022;4.692;2023-03-01T05:33:00;15.00;13.33;7.33
12246;PMS7003;6186;52.022;4.692;2023-03-01T05:35:26;16.00;13.67;8.00
12246;PMS7003;6186;52.022;4.692;2023-03-01T05:37:52;15.67;15.00;7.00
12246;PMS7003;6186;52.022;4.692;2023-03-01T05:40:18;12.33;11.33;7.00
12246;PMS7003;6186;52.022;4.692;2023-03-01T05:42:51;15.50;13.25;7.00
12246;PMS7003;6186;52.022;4.692;2023-03-01T05:45:21;12.50;10.75;5.50
12246;PMS7003;6186;52.022;4.692;2023-03-01T05:47:48;15.00;14.25;7.75
12246;PMS7003;6186;52.022;4.692;2023-03-01T05:52:47;13.75;13.00;7.75
12246;PMS7003;6186;52.022;4.692;2023-03-01T05:55:15;12.75;11.50;7.00
12246;PMS7003;6186;52.022;4.692;2023-03-01T05:57:42;15.75;13.75;8.25
12246;PMS7003;6186;52.022;4.692;2023-03-01T06:00:09;15.33;15.00;8.33
12246;PMS7003;6186;52.022;4.692;2023-03-01T06:02:34;11.50;11.50;6.50
12246;PMS7003;6186;52.022;4.692;2023-03-01T06:05:00;17.33;16.00;8.67
12246;PMS7003;6186;52.022;4.692;2023-03-01T06:07:25;20.00;13.67;7.33
12246;PMS7003;6186;52.022;4.692;2023-03-01T06:09:51;11.33;11.33;5.33
12246;PMS7003;6186;52.022;4.692;2023-03-01T06:12:16;16.67;16.00;9.33
12246;PMS7003;6186;52.022;4.692;2023-03-01T06:14:42;14.50;13.75;7.75
12246;PMS7003;6186;52.022;4.692;2023-03-01T06:17:07;24.00;18.00;9.67
12246;PMS7003;6186;52.022;4.692;2023-03-01T06:19:32;16.67;16.00;10.00
12246;PMS7003;6186;52.022;4.692;2023-03-01T06:21:58;20.00;17.00;8.33
12246;PMS7003;6186;52.022;4.692;2023-03-01T06:24:23;16.00;14.33;7.33
12246;PMS7003;6186;52.022;4.692;2023-03-01T06:26:49;19.67;16.33;9.67
12246;PMS7003;6186;52.022;4.692;2023-03-01T06:29:14;16.00;14.33;7.33
12246;PMS7003;6186;52.022;4.692;2023-03-01T06:31:39;14.00;13.00;7.00
12246;PMS7003;6186;52.022;4.692;2023-03-01T06:34:05;14.33;13.33;7.33
12246;PMS7003;6186;52.022;4.692;2023-03-01T06:36:30;12.67;11.33;7.00
12246;PMS7003;6186;52.022;4.692;2023-03-01T06:38:55;18.33;16.33;9.33
12246;PMS7003;6186;52.022;4.692;2023-03-01T06:41:21;18.33;14.00;8.33
12246;PMS7003;6186;52.022;4.692;2023-03-01T06:43:46;13.67;13.33;7.00
12246;PMS7003;6186;52.022;4.692;2023-03-01T06:46:11;15.00;13.00;8.33
12246;PMS7003;6186;52.022;4.692;2023-03-01T06:48:37;13.33;13.00;7.00
12246;PMS7003;6186;52.022;4.692;2023-03-01T06:51:02;14.00;13.67;7.67
12246;PMS7003;6186;52.022;4.692;2023-03-01T06:53:28;12.67;10.67;7.33
12246;PMS7003;6186;52.022;4.692;2023-03-01T06:55:55;15.75;14.00;7.00
12246;PMS7003;6186;52.022;4.692;2023-03-01T06:58:21;18.00;15.75;9.75
12246;PMS7003;6186;52.022;4.692;2023-03-01T07:00:46;13.67;13.33;7.67
12246;PMS7003;6186;52.022;4.692;2023-03-01T07:03:11;14.00;13.67;7.33
12246;PMS7003;6186;52.022;4.692;2023-03-01T07:05:37;16.33;14.00;7.67
12246;PMS7003;6186;52.022;4.692;2023-03-01T07:08:02;17.00;16.00;8.00
12246;PMS7003;6186;52.022;4.692;2023-03-01T07:10:27;18.00;14.33;8.33
12246;PMS7003;6186;52.022;4.692;2023-03-01T07:12:56;17.00;14.33;8.33
12246;PMS7003;6186;52.022;4.692;2023-03-01T07:15:23;17.75;16.25;8.25
12246;PMS7003;6186;52.022;4.692;2023-03-01T07:17:49;14.25;14.25;7.00
12246;PMS7003;6186;52.022;4.692;2023-03-01T07:20:15;14.00;14.00;7.50
12246;PMS7003;6186;52.022;4.692;2023-03-01T07:22:42;15.75;14.50;8.25
12246;PMS7003;6186;52.022;4.692;2023-03-01T07:25:08;16.00;16.00;9.33
12246;PMS7003;6186;52.022;4.692;2023-03-01T07:27:35;19.00;15.50;7.25
12246;PMS7003;6186;52.022;4.692;2023-03-01T07:30:01;16.50;16.25;8.00
12246;PMS7003;6186;52.022;4.692;2023-03-01T07:32:27;16.00;14.25;8.00
12246;PMS7003;6186;52.022;4.692;2023-03-01T07:34:52;15.00;14.00;7.33
12246;PMS7003;6186;52.022;4.692;2023-03-01T07:37:18;19.33;17.00;8.00
12246;PMS7003;6186;52.022;4.692;2023-03-01T07:39:43;17.33;17.00;8.00
12246;PMS7003;6186;52.022;4.692;2023-03-01T07:42:08;20.00;14.00;8.00
12246;PMS7003;6186;52.022;4.692;2023-03-01T07:44:34;20.33;17.00;10.00
12246;PMS7003;6186;52.022;4.692;2023-03-01T07:46:59;15.67;15.00;7.67
12246;PMS7003;6186;52.022;4.692;2023-03-01T07:49:25;15.50;13.75;7.00
12246;PMS7003;6186;52.022;4.692;2023-03-01T07:51:54;18.25;14.75;7.00
12246;PMS7003;6186;52.022;4.692;2023-03-01T07:54:19;13.67;13.67;8.00
12246;PMS7003;6186;52.022;4.692;2023-03-01T07:56:45;13.00;12.00;7.00
12246;PMS7003;6186;52.022;4.692;2023-03-01T07:59:10;19.33;16.00;8.00
12246;PMS7003;6186;52.022;4.692;2023-03-01T08:01:35;18.33;14.67;8.00
12246;PMS7003;6186;52.022;4.692;2023-03-01T08:04:01;14.50;12.50;7.00
12246;PMS7003;6186;52.022;4.692;2023-03-01T08:06:26;15.33;14.00;7.33
12246;PMS7003;6186;52.022;4.692;2023-03-01T08:08:52;14.50;12.25;7.00
12246;PMS7003;6186;52.022;4.692;2023-03-01T08:11:20;11.75;11.00;5.00
12246;PMS7003;6186;52.022;4.692;2023-03-01T08:13:47;11.75;11.50;5.75
12246;PMS7003;6186;52.022;4.692;2023-03-01T08:16:13;13.00;12.25;6.00
12246;PMS7003;6186;52.022;4.692;2023-03-01T08:18:40;16.75;14.25;8.00
12246;PMS7003;6186;52.022;4.692;2023-03-01T08:21:06;14.50;14.00;6.50
12246;PMS7003;6186;52.022;4.692;2023-03-01T08:23:33;15.75;14.25;8.00
12246;PMS7003;6186;52.022;4.692;2023-03-01T08:28:36;12.00;11.50;6.00
12246;PMS7003;6186;52.022;4.692;2023-03-01T08:31:02;14.67;13.67;6.33
12246;PMS7003;6186;52.022;4.692;2023-03-01T08:33:28;13.00;10.33;4.33
12246;PMS7003;6186;52.022;4.692;2023-03-01T08:36:02;12.00;11.00;5.00
12246;PMS7003;6186;52.022;4.692;2023-03-01T08:38:28;18.00;15.00;6.50
12246;PMS7003;6186;52.022;4.692;2023-03-01T08:40:53;12.33;10.00;5.00
12246;PMS7003;6186;52.022;4.692;2023-03-01T08:43:19;13.00;12.67;6.00
12246;PMS7003;6186;52.022;4.692;2023-03-01T08:45:44;12.00;11.00;6.00
12246;PMS7003;6186;52.022;4.692;2023-03-01T08:48:09;12.00;9.67;5.33
12246;PMS7003;6186;52.022;4.692;2023-03-01T08:50:35;12.00;10.33;5.67
12246;PMS7003;6186;52.022;4.692;2023-03-01T08:53:00;12.67;12.00;5.33
12246;PMS7003;6186;52.022;4.692;2023-03-01T08:55:25;15.67;12.67;6.00
12246;PMS7003;6186;52.022;4.692;2023-03-01T08:57:51;16.33;12.33;6.00
12246;PMS7003;6186;52.022;4.692;2023-03-01T09:00:16;12.00;10.00;6.00
12246;PMS7003;6186;52.022;4.692;2023-03-01T09:02:42;12.50;11.00;6.00
12246;PMS7003;6186;52.022;4.692;2023-03-01T09:05:07;11.33;11.33;6.00
12246;PMS7003;6186;52.022;4.692;2023-03-01T09:07:33;14.00;13.75;7.50
12246;PMS7003;6186;52.022;4.692;2023-03-01T09:09:59;14.33;11.00;5.67
12246;PMS7003;6186;52.022;4.692;2023-03-01T09:12:24;13.67;12.00;6.00
12246;PMS7003;6186;52.022;4.692;2023-03-01T09:14:50;10.67;10.67;6.00
12246;PMS7003;6186;52.022;4.692;2023-03-01T09:17:15;15.67;11.67;6.67
12246;PMS7003;6186;52.022;4.692;2023-03-01T09:19:40;12.33;11.67;7.00
12246;PMS7003;6186;52.022;4.692;2023-03-01T09:22:06;14.33;11.33;6.33
12246;PMS7003;6186;52.022;4.692;2023-03-01T09:24:31;15.00;12.00;7.00
12246;PMS7003;6186;52.022;4.692;2023-03-01T09:26:56;13.67;13.33;6.67
12246;PMS7003;6186;52.022;4.692;2023-03-01T09:29:22;13.20;12.40;6.80
12246;PMS7003;6186;52.022;4.692;2023-03-01T09:31:48;13.50;11.00;6.25
12246;PMS7003;6186;52.022;4.692;2023-03-01T09:34:14;12.50;11.25;7.00
12246;PMS7003;6186;52.022;4.692;2023-03-01T09:36:41;13.40;12.00;7.00
12246;PMS7003;6186;52.022;4.692;2023-03-01T09:39:06;11.25;11.00;6.50
12246;PMS7003;6186;52.022;4.692;2023-03-01T09:44:30;14.80;12.20;7.00
12246;PMS7003;6186;52.022;4.692;2023-03-01T09:46:59;14.20;11.00;7.00
12246;PMS7003;6186;52.022;4.692;2023-03-01T09:49:26;12.80;11.80;7.20
12246;PMS7003;6186;52.022;4.692;2023-03-01T09:51:57;12.40;10.60;7.00
12246;PMS7003;6186;52.022;4.692;2023-03-01T09:54:26;12.40;11.80;6.40
12246;PMS7003;6186;52.022;4.692;2023-03-01T09:56:56;13.20;12.40;6.40
12246;PMS7003;6186;52.022;4.692;2023-03-01T09:59:42;12.80;12.80;7.00
12246;PMS7003;6186;52.022;4.692;2023-03-01T10:05:00;12.60;11.20;6.00
12246;PMS7003;6186;52.022;4.692;2023-03-01T10:07:41;10.00;10.00;5.60
12246;PMS7003;6186;52.022;4.692;2023-03-01T10:10:27;12.20;11.40;6.00
12246;PMS7003;6186;52.022;4.692;2023-03-01T10:12:58;12.80;11.80;7.40
12246;PMS7003;6186;52.022;4.692;2023-03-01T10:15:34;13.00;11.20;6.60
12246;PMS7003;6186;52.022;4.692;2023-03-01T10:18:06;12.00;10.60;6.20
12246;PMS7003;6186;52.022;4.692;2023-03-01T10:20:43;10.20;10.00;4.80
12246;PMS7003;6186;52.022;4.692;2023-03-01T10:23:17;14.00;11.80;6.80
12246;PMS7003;6186;52.022;4.692;2023-03-01T10:31:23;14.40;12.60;7.40
12246;PMS7003;6186;52.022;4.692;2023-03-01T10:33:55;10.20;10.00;5.00
12246;PMS7003;6186;52.022;4.692;2023-03-01T10:36:24;12.20;11.40;5.80
12246;PMS7003;6186;52.022;4.692;2023-03-01T10:38:51;10.25;9.25;5.00
12246;PMS7003;6186;52.022;4.692;2023-03-01T10:41:22;12.60;11.20;6.60
12246;PMS7003;6186;52.022;4.692;2023-03-01T10:43:55;11.40;10.20;6.00
12246;PMS7003;6186;52.022;4.692;2023-03-01T10:46:35;13.40;12.20;7.00
12246;PMS7003;6186;52.022;4.692;2023-03-01T10:51:47;11.80;10.80;5.60
12246;PMS7003;6186;52.022;4.692;2023-03-01T10:54:27;15.00;14.00;8.00
12246;PMS7003;6186;52.022;4.692;2023-03-01T10:56:55;14.40;13.00;7.00
12246;PMS7003;6186;52.022;4.692;2023-03-01T10:59:27;13.20;12.20;8.00
12246;PMS7003;6186;52.022;4.692;2023-03-01T11:04:56;11.20;9.60;6.20
12246;PMS7003;6186;52.022;4.692;2023-03-01T11:10:20;10.20;9.40;5.60
12246;PMS7003;6186;52.022;4.692;2023-03-01T11:12:52;11.00;10.60;6.20
12246;PMS7003;6186;52.022;4.692;2023-03-01T11:15:29;11.20;10.00;6.00
12246;PMS7003;6186;52.022;4.692;2023-03-01T11:17:55;10.00;8.40;6.00
12246;PMS7003;6186;52.022;4.692;2023-03-01T11:22:55;11.60;11.00;6.60
12246;PMS7003;6186;52.022;4.692;2023-03-01T11:25:29;9.20;8.40;5.00
12246;PMS7003;6186;52.022;4.692;2023-03-01T11:28:00;10.60;9.00;6.00
12246;PMS7003;6186;52.022;4.692;2023-03-01T11:30:29;8.40;8.00;5.00
12246;PMS7003;6186;52.022;4.692;2023-03-01T11:33:20;8.80;7.80;4.40
12246;PMS7003;6186;52.022;4.692;2023-03-01T11:36:13;7.00;6.80;4.60
12246;PMS7003;6186;52.022;4.692;2023-03-01T11:38:47;8.20;8.00;5.00
12246;PMS7003;6186;52.022;4.692;2023-03-01T11:41:23;8.75;8.00;4.00
12246;PMS7003;6186;52.022;4.692;2023-03-01T11:44:04;7.80;7.80;4.00
12246;PMS7003;6186;52.022;4.692;2023-03-01T11:49:36;8.20;7.80;3.80
12246;PMS7003;6186;52.022;4.692;2023-03-01T11:58:06;7.80;7.00;4.00
12246;PMS7003;6186;52.022;4.692;2023-03-01T12:09:09;6.00;5.80;3.00
12246;PMS7003;6186;52.022;4.692;2023-03-01T12:15:03;7.80;6.40;4.00
12246;PMS7003;6186;52.022;4.692;2023-03-01T12:20:18;7.40;6.40;3.40
12246;PMS7003;6186;52.022;4.692;2023-03-01T12:26:10;6.80;6.20;3.60
12246;PMS7003;6186;52.022;4.692;2023-03-01T12:31:37;5.80;5.40;3.00
12246;PMS7003;6186;52.022;4.692;2023-03-01T12:39:32;6.00;5.60;2.80
12246;PMS7003;6186;52.022;4.692;2023-03-01T12:42:23;7.60;7.00;3.80
12246;PMS7003;6186;52.022;4.692;2023-03-01T12:45:12;7.40;6.80;4.80
12246;PMS7003;6186;52.022;4.692;2023-03-01T12:51:11;7.60;6.60;3.80
12246;PMS7003;6186;52.022;4.692;2023-03-01T12:53:42;7.20;6.80;3.40
12246;PMS7003;6186;52.022;4.692;2023-03-01T12:56:13;9.00;7.00;4.20
12246;PMS7003;6186;52.022;4.692;2023-03-01T13:12:02;6.80;6.00;3.20
12246;PMS7003;6186;52.022;4.692;2023-03-01T13:16:56;9.00;7.00;3.00
12246;PMS7003;6186;52.022;4.692;2023-03-01T13:19:22;8.75;7.00;4.00
12246;PMS7003;6186;52.022;4.692;2023-03-01T13:21:50;5.60;5.20;3.00
12246;PMS7003;6186;52.022;4.692;2023-03-01T13:29:46;7.20;7.20;4.00
12246;PMS7003;6186;52.022;4.692;2023-03-01T13:37:26;7.00;6.60;4.00
12246;PMS7003;6186;52.022;4.692;2023-03-01T13:39:54;6.80;6.60;4.00
12246;PMS7003;6186;52.022;4.692;2023-03-01T13:45:12;7.60;7.60;4.40
12246;PMS7003;6186;52.022;4.692;2023-03-01T13:47:41;6.20;6.20;3.80
12246;PMS7003;6186;52.022;4.692;2023-03-01T13:50:15;6.00;6.00;4.00
12246;PMS7003;6186;52.022;4.692;2023-03-01T13:52:44;7.80;7.40;4.60
12246;PMS7003;6186;52.022;4.692;2023-03-01T13:57:38;7.00;7.00;4.00
12246;PMS7003;6186;52.022;4.692;2023-03-01T14:00:24;8.20;7.80;4.00
12246;PMS7003;6186;52.022;4.692;2023-03-01T14:05:33;9.40;6.40;4.00
12246;PMS7003;6186;52.022;4.692;2023-03-01T14:08:00;8.20;8.00;4.80
12246;PMS7003;6186;52.022;4.692;2023-03-01T14:10:29;8.20;7.40;4.40
12246;PMS7003;6186;52.022;4.692;2023-03-01T14:13:46;8.40;7.60;4.00
12246;PMS7003;6186;52.022;4.692;2023-03-01T14:18:52;7.60;7.20;4.40
12246;PMS7003;6186;52.022;4.692;2023-03-01T14:21:26;8.40;7.20;4.40
12246;PMS7003;6186;52.022;4.692;2023-03-01T14:23:52;7.50;7.00;5.00
12246;PMS7003;6186;52.022;4.692;2023-03-01T14:26:21;10.00;8.60;5.00
12246;PMS7003;6186;52.022;4.692;2023-03-01T14:28:47;6.80;6.40;4.00
12246;PMS7003;6186;52.022;4.692;2023-03-01T14:34:00;8.00;7.00;4.00
12246;PMS7003;6186;52.022;4.692;2023-03-01T14:36:26;9.60;8.80;5.80
12246;PMS7003;6186;52.022;4.692;2023-03-01T14:38:54;8.80;8.20;4.40
12246;PMS7003;6186;52.022;4.692;2023-03-01T14:41:23;7.25;6.00;4.00
12246;PMS7003;6186;52.022;4.692;2023-03-01T14:46:24;7.80;7.00;4.00
12246;PMS7003;6186;52.022;4.692;2023-03-01T14:49:00;7.60;7.00;4.00
12246;PMS7003;6186;52.022;4.692;2023-03-01T14:51:49;7.00;7.00;4.20
12246;PMS7003;6186;52.022;4.692;2023-03-01T14:54:29;9.40;7.20;4.00
12246;PMS7003;6186;52.022;4.692;2023-03-01T14:57:02;6.20;5.80;4.00
12246;PMS7003;6186;52.022;4.692;2023-03-01T14:59:28;6.25;6.00;4.00
12246;PMS7003;6186;52.022;4.692;2023-03-01T15:01:55;7.00;7.00;4.00
12246;PMS7003;6186;52.022;4.692;2023-03-01T15:04:23;7.00;7.00;4.00
12246;PMS7003;6186;52.022;4.692;2023-03-01T15:06:51;6.00;6.00;4.00
12246;PMS7003;6186;52.022;4.692;2023-03-01T15:09:19;7.20;6.80;4.00
12246;PMS7003;6186;52.022;4.692;2023-03-01T15:15:30;8.40;7.20;4.00
12246;PMS7003;6186;52.022;4.692;2023-03-01T15:18:03;7.20;6.60;3.60
12246;PMS7003;6186;52.022;4.692;2023-03-01T15:20:39;7.20;6.40;4.00
12246;PMS7003;6186;52.022;4.692;2023-03-01T15:23:04;7.00;7.00;3.00
12246;PMS7003;6186;52.022;4.692;2023-03-01T15:25:31;7.20;6.20;3.00
12246;PMS7003;6186;52.022;4.692;2023-03-01T15:27:58;6.00;6.00;3.40
12246;PMS7003;6186;52.022;4.692;2023-03-01T15:30:34;7.60;7.40;4.00
12246;PMS7003;6186;52.022;4.692;2023-03-01T15:35:52;10.80;8.00;4.00
12246;PMS7003;6186;52.022;4.692;2023-03-01T15:40:49;9.00;6.20;3.20
12246;PMS7003;6186;52.022;4.692;2023-03-01T15:46:05;7.40;6.20;3.40
12246;PMS7003;6186;52.022;4.692;2023-03-01T15:48:43;8.40;7.00;3.80
12246;PMS7003;6186;52.022;4.692;2023-03-01T15:51:10;7.20;6.80;3.00
12246;PMS7003;6186;52.022;4.692;2023-03-01T15:53:38;10.80;6.40;3.20
12246;PMS7003;6186;52.022;4.692;2023-03-01T15:56:04;6.00;6.00;3.25
12246;PMS7003;6186;52.022;4.692;2023-03-01T15:58:32;9.00;8.00;4.00
12246;PMS7003;6186;52.022;4.692;2023-03-01T16:00:58;8.75;7.75;3.75
12246;PMS7003;6186;52.022;4.692;2023-03-01T16:03:24;8.40;8.00;4.20
12246;PMS7003;6186;52.022;4.692;2023-03-01T16:05:49;8.00;5.80;3.00
12246;PMS7003;6186;52.022;4.692;2023-03-01T16:08:16;6.40;5.40;3.40
12246;PMS7003;6186;52.022;4.692;2023-03-01T16:10:43;8.00;7.00;3.00
12246;PMS7003;6186;52.022;4.692;2023-03-01T16:13:09;8.00;6.40;3.40
12246;PMS7003;6186;52.022;4.692;2023-03-01T16:15:35;6.20;6.20;3.00
12246;PMS7003;6186;52.022;4.692;2023-03-01T16:18:01;8.75;8.00;4.00
12246;PMS7003;6186;52.022;4.692;2023-03-01T16:20:27;8.00;8.00;3.00
12246;PMS7003;6186;52.022;4.692;2023-03-01T16:22:54;6.40;6.40;3.00
12246;PMS7003;6186;52.022;4.692;2023-03-01T16:25:22;6.60;6.40;3.60
12246;PMS7003;6186;52.022;4.692;2023-03-01T16:27:49;6.25;6.25;3.50
12246;PMS7003;6186;52.022;4.692;2023-03-01T16:30:16;7.20;6.60;3.20
12246;PMS7003;6186;52.022;4.692;2023-03-01T16:32:44;8.80;8.00;3.60
12246;PMS7003;6186;52.022;4.692;2023-03-01T16:35:11;8.40;7.60;4.00